createdAt,value
2018-11-29T00:00:34.398Z,29.97
2018-11-29T00:03:03.267Z,30.07
2018-11-29T00:05:32.529Z,31.37
2018-11-29T00:08:01.355Z,30.87
2018-11-29T00:10:30.538Z,27.27
2018-11-29T00:12:59.432Z,28.57
2018-11-29T00:15:28.237Z,31.47
2018-11-29T00:17:57.019Z,29.17
2018-11-29T00:20:25.820Z,32.23
2018-11-29T00:22:54.625Z,32.30
2018-11-29T00:25:23.486Z,31.93
2018-11-29T00:27:52.269Z,31.30
2018-11-29T00:30:22.887Z,36.00
2018-11-29T00:32:53.241Z,34.97
2018-11-29T00:35:22.049Z,32.57
2018-11-29T00:37:50.878Z,33.73
2018-11-29T00:40:25.124Z,32.13
2018-11-29T00:42:53.995Z,33.73
2018-11-29T00:45:23.897Z,32.80
2018-11-29T00:47:52.943Z,29.60
2018-11-29T00:50:22.113Z,33.87
2018-11-29T00:52:51.523Z,35.23
2018-11-29T00:55:22.885Z,33.87
2018-11-29T00:57:52.414Z,30.00
2018-11-29T01:00:24.555Z,29.33
2018-11-29T01:02:53.401Z,33.13
2018-11-29T01:05:22.204Z,33.30
2018-11-29T01:07:51.007Z,32.30
2018-11-29T01:10:19.924Z,32.23
2018-11-29T01:12:49.211Z,34.13
2018-11-29T01:15:19.490Z,31.70
2018-11-29T01:17:49.557Z,32.73
2018-11-29T01:20:20.479Z,36.17
2018-11-29T01:22:49.312Z,31.73
2018-11-29T01:25:18.296Z,31.97
2018-11-29T01:27:48.677Z,30.33
2018-11-29T01:30:18.895Z,29.50
2018-11-29T01:32:48.161Z,32.67
2018-11-29T01:35:19.790Z,30.17
2018-11-29T01:37:49.167Z,28.87
2018-11-29T01:40:21.839Z,31.80
2018-11-29T01:42:57.896Z,32.87
2018-11-29T01:45:26.985Z,30.70
2018-11-29T01:47:55.767Z,35.70
2018-11-29T01:50:24.594Z,31.90
2018-11-29T01:52:53.772Z,30.60
2018-11-29T01:55:22.575Z,33.80
2018-11-29T01:57:51.441Z,33.47
2018-11-29T02:00:20.265Z,33.37
2018-11-29T02:02:50.969Z,27.27
2018-11-29T02:05:19.774Z,32.93
2018-11-29T02:07:48.621Z,30.83
2018-11-29T02:10:23.293Z,30.17
2018-11-29T02:12:52.476Z,31.00
2018-11-29T02:15:21.276Z,29.67
2018-11-29T02:17:50.059Z,30.97
2018-11-29T02:20:19.880Z,26.57
2018-11-29T02:22:48.941Z,31.73
2018-11-29T02:25:17.761Z,27.03
2018-11-29T02:27:46.573Z,31.93
2018-11-29T02:30:21.077Z,28.15
2018-11-29T02:32:50.889Z,28.47
2018-11-29T02:35:19.693Z,28.83
2018-11-29T02:37:48.541Z,28.93
2018-11-29T02:40:18.279Z,31.43
2018-11-29T02:42:48.499Z,30.37
2018-11-29T02:45:21.991Z,28.33
2018-11-29T02:47:50.792Z,30.40
2018-11-29T02:50:19.594Z,27.20
2018-11-29T02:52:48.582Z,28.83
2018-11-29T02:55:17.377Z,31.30
2018-11-29T02:57:46.187Z,29.67
2018-11-29T03:00:17.346Z,25.47
2018-11-29T03:02:46.197Z,27.53
2018-11-29T03:05:16.140Z,28.73
2018-11-29T03:07:44.988Z,26.00
2018-11-29T03:10:14.780Z,30.82
2018-11-29T03:12:43.952Z,29.20
2018-11-29T03:15:15.410Z,26.10
2018-11-29T03:17:44.861Z,28.97
2018-11-29T03:20:14.602Z,28.23
2018-11-29T03:22:43.506Z,28.07
2018-11-29T03:25:15.505Z,25.50
2018-11-29T03:27:44.814Z,24.90
2018-11-29T03:30:15.964Z,26.90
2018-11-29T03:32:44.810Z,30.87
2018-11-29T03:35:15.218Z,27.77
2018-11-29T03:37:44.014Z,28.57
2018-11-29T03:40:14.389Z,28.20
2018-11-29T03:42:43.372Z,29.20
2018-11-29T03:45:15.235Z,27.50
2018-11-29T03:47:44.213Z,26.60
2018-11-29T03:50:15.449Z,24.67
2018-11-29T03:52:44.322Z,28.73
2018-11-29T03:55:13.348Z,32.38
2018-11-29T03:57:42.157Z,27.57
2018-11-29T04:00:15.281Z,27.20
2018-11-29T04:02:45.072Z,26.47
2018-11-29T04:05:14.044Z,28.70
2018-11-29T04:07:42.861Z,25.30
2018-11-29T04:10:14.203Z,25.97
2018-11-29T04:12:43.378Z,27.90
2018-11-29T04:15:13.625Z,26.70
2018-11-29T04:17:42.443Z,26.13
2018-11-29T04:20:16.565Z,24.37
2018-11-29T04:22:45.415Z,26.23
2018-11-29T04:25:15.172Z,24.77
2018-11-29T04:27:44.513Z,26.47
2018-11-29T04:30:15.608Z,24.40
2018-11-29T04:32:44.491Z,24.30
2018-11-29T04:35:13.933Z,24.47
2018-11-29T04:37:42.746Z,27.17
2018-11-29T04:40:14.993Z,26.70
2018-11-29T04:42:43.879Z,26.67
2018-11-29T04:45:14.270Z,23.00
2018-11-29T04:47:43.197Z,24.67
2018-11-29T04:50:12.024Z,25.23
2018-11-29T04:52:40.802Z,24.73
2018-11-29T04:55:10.483Z,24.53
2018-11-29T04:57:39.292Z,22.87
2018-11-29T05:00:12.554Z,24.07
2018-11-29T05:02:41.379Z,22.87
2018-11-29T05:05:10.819Z,24.80
2018-11-29T05:07:39.978Z,24.10
2018-11-29T05:10:11.094Z,25.62
2018-11-29T05:12:39.909Z,24.60
2018-11-29T05:15:10.933Z,26.60
2018-11-29T05:17:39.764Z,23.20
2018-11-29T05:20:09.372Z,27.65
2018-11-29T05:22:38.754Z,27.60
2018-11-29T05:25:09.293Z,23.57
2018-11-29T05:27:38.328Z,24.93
2018-11-29T05:35:09.818Z,26.43
2018-11-29T05:37:39.159Z,22.83
2018-11-29T05:40:11.201Z,24.40
2018-11-29T05:42:40.093Z,23.47
2018-11-29T05:45:10.461Z,24.15
2018-11-29T05:47:39.313Z,25.93
2018-11-29T05:50:11.505Z,23.70
2018-11-29T05:52:41.842Z,23.03
2018-11-29T05:55:11.361Z,22.80
2018-11-29T05:57:40.158Z,25.43
2018-11-29T06:00:14.642Z,23.60
2018-11-29T06:02:44.157Z,23.97
2018-11-29T06:05:15.105Z,25.92
2018-11-29T06:07:43.900Z,23.77
2018-11-29T06:10:12.711Z,28.00
2018-11-29T06:12:41.777Z,22.60
2018-11-29T06:15:11.493Z,21.10
2018-11-29T06:17:40.838Z,21.20
2018-11-29T06:20:13.212Z,20.53
2018-11-29T06:22:42.041Z,25.03
2018-11-29T06:25:11.169Z,20.30
2018-11-29T06:27:40.010Z,22.53
2018-11-29T06:30:18.142Z,21.47
2018-11-29T06:32:47.790Z,23.00
2018-11-29T06:35:16.637Z,47.43
2018-11-29T06:37:45.942Z,39.00
2018-11-29T06:40:16.164Z,25.93
2018-11-29T06:42:45.135Z,20.40
2018-11-29T06:45:21.205Z,21.37
2018-11-29T06:47:52.260Z,23.70
2018-11-29T06:50:21.065Z,24.40
2018-11-29T06:52:51.554Z,24.13
2018-11-29T06:55:21.737Z,24.93
2018-11-29T06:57:50.777Z,24.13
2018-11-29T07:00:25.317Z,25.27
2018-11-29T07:02:54.209Z,21.30
2018-11-29T07:05:23.019Z,20.90
2018-11-29T07:07:51.853Z,23.20
2018-11-29T07:10:26.081Z,21.57
2018-11-29T07:12:54.911Z,22.37
2018-11-29T07:15:23.878Z,24.43
2018-11-29T07:17:52.653Z,24.43
2018-11-29T07:20:21.461Z,19.07
2018-11-29T07:22:50.306Z,22.17
2018-11-29T07:25:19.125Z,28.10
2018-11-29T07:27:47.950Z,22.97
2018-11-29T07:30:18.022Z,21.57
2018-11-29T07:32:47.209Z,22.23
2018-11-29T07:35:17.452Z,21.82
2018-11-29T07:37:46.744Z,23.07
2018-11-29T07:40:19.537Z,23.03
2018-11-29T07:42:52.317Z,20.93
2018-11-29T07:45:21.721Z,19.27
2018-11-29T07:47:50.517Z,19.73
2018-11-29T07:50:22.107Z,19.00
2018-11-29T07:52:50.973Z,21.83
2018-11-29T07:55:21.234Z,19.83
2018-11-29T07:57:52.078Z,20.33
2018-11-29T08:00:20.971Z,23.98
2018-11-29T08:02:49.805Z,21.60
2018-11-29T08:05:18.689Z,19.87
2018-11-29T08:07:48.727Z,19.77
2018-11-29T08:10:18.863Z,19.17
2018-11-29T08:12:48.368Z,18.40
2018-11-29T08:15:20.310Z,21.40
2018-11-29T08:17:49.177Z,19.23
2018-11-29T08:20:19.505Z,18.73
2018-11-29T08:22:48.338Z,22.53
2018-11-29T08:25:17.751Z,20.57
2018-11-29T08:27:46.589Z,22.67
2018-11-29T08:30:16.277Z,20.50
2018-11-29T08:32:45.674Z,21.57
2018-11-29T08:35:15.536Z,22.07
2018-11-29T08:37:46.668Z,20.53
2018-11-29T08:40:17.676Z,20.33
2018-11-29T08:42:46.488Z,23.10
2018-11-29T08:45:15.316Z,20.10
2018-11-29T08:47:44.131Z,20.77
2018-11-29T08:50:13.958Z,19.73
2018-11-29T08:52:44.534Z,23.23
2018-11-29T08:55:16.648Z,21.10
2018-11-29T08:57:46.100Z,18.63
2018-11-29T09:00:17.641Z,18.80
2018-11-29T09:02:46.502Z,20.23
2018-11-29T09:05:15.779Z,21.77
2018-11-29T09:07:46.003Z,18.90
2018-11-29T09:10:18.927Z,22.30
2018-11-29T09:12:47.731Z,19.60
2018-11-29T09:15:17.292Z,22.63
2018-11-29T09:17:46.213Z,19.07
2018-11-29T09:20:17.677Z,18.43
2018-11-29T09:22:46.466Z,19.93
2018-11-29T09:25:16.701Z,19.83
2018-11-29T09:27:45.519Z,19.57
2018-11-29T09:30:18.730Z,17.65
2018-11-29T09:32:48.947Z,19.40
2018-11-29T09:35:17.779Z,18.00
2018-11-29T09:37:46.590Z,18.43
2018-11-29T09:40:16.857Z,20.33
2018-11-29T09:42:45.920Z,22.20
2018-11-29T09:45:22.654Z,27.03
2018-11-29T09:47:53.920Z,20.47
2018-11-29T09:50:23.330Z,19.27
2018-11-29T09:52:52.162Z,19.37
2018-11-29T09:55:20.969Z,21.07
2018-11-29T09:57:50.826Z,18.70
2018-11-29T10:00:28.020Z,20.75
2018-11-29T10:03:06.794Z,20.70
2018-11-29T10:05:35.617Z,19.35
2018-11-29T10:08:11.529Z,22.53
2018-11-29T10:10:33.477Z,20.30
2018-11-29T10:13:02.256Z,18.13
2018-11-29T10:15:31.058Z,17.13
2018-11-29T10:17:59.874Z,19.83
2018-11-29T10:20:28.686Z,18.77
2018-11-29T10:22:57.485Z,19.33
2018-11-29T10:25:26.826Z,20.65
2018-11-29T10:27:58.616Z,18.63
2018-11-29T10:30:53.649Z,19.43
2018-11-29T10:33:22.465Z,22.23
2018-11-29T10:35:51.265Z,21.40
2018-11-29T10:38:21.967Z,22.37
2018-11-29T10:40:51.073Z,20.30
2018-11-29T10:43:19.947Z,21.23
2018-11-29T10:45:48.977Z,17.87
2018-11-29T10:48:22.177Z,17.17
2018-11-29T10:50:51.053Z,19.60
2018-11-29T10:53:19.852Z,16.77
2018-11-29T10:55:48.669Z,17.82
2018-11-29T10:58:17.518Z,24.00
2018-11-29T11:01:49.134Z,21.63
2018-11-29T11:04:18.150Z,21.00
2018-11-29T11:06:46.989Z,19.43
2018-11-29T11:09:15.813Z,19.83
2018-11-29T11:11:44.645Z,19.30
2018-11-29T11:14:13.478Z,18.20
2018-11-29T11:16:42.303Z,16.03
2018-11-29T11:19:11.122Z,19.37
2018-11-29T11:21:39.970Z,18.47
2018-11-29T11:24:08.786Z,19.67
2018-11-29T11:26:37.998Z,16.67
2018-11-29T11:29:06.962Z,17.37
2018-11-29T11:31:35.773Z,17.70
2018-11-29T11:34:04.590Z,17.60
2018-11-29T11:36:33.398Z,19.50
2018-11-29T11:39:02.197Z,17.07
2018-11-29T11:41:31.140Z,18.57
2018-11-29T11:43:59.933Z,16.63
2018-11-29T11:46:28.785Z,17.50
2018-11-29T11:48:58.020Z,20.50
2018-11-29T11:51:26.809Z,19.80
2018-11-29T11:53:55.602Z,17.63
2018-11-29T11:56:24.439Z,18.83
2018-11-29T11:58:53.236Z,17.57
2018-11-29T12:01:22.037Z,20.10
2018-11-29T12:03:57.135Z,17.43
2018-11-29T12:06:25.965Z,15.90
2018-11-29T12:08:54.753Z,18.07
2018-11-29T12:11:23.873Z,18.93
2018-11-29T12:13:52.706Z,16.87
2018-11-29T12:16:21.501Z,27.00
2018-11-29T12:18:50.381Z,18.17
2018-11-29T12:21:19.182Z,22.07
2018-11-29T12:23:47.985Z,17.50
2018-11-29T12:26:16.814Z,16.23
2018-11-29T12:28:45.601Z,18.43
2018-11-29T12:31:14.434Z,13.78
2018-11-29T12:33:43.614Z,15.73
2018-11-29T12:36:12.426Z,18.77
2018-11-29T12:38:41.238Z,17.37
2018-11-29T12:41:10.038Z,20.10
2018-11-29T12:43:39.163Z,17.40
2018-11-29T12:46:07.993Z,19.70
2018-11-29T12:48:36.838Z,14.93
2018-11-29T12:51:05.718Z,17.10
2018-11-29T12:53:34.523Z,15.57
2018-11-29T12:56:03.913Z,15.93
2018-11-29T12:58:32.718Z,17.23
2018-11-29T13:01:01.528Z,15.93
2018-11-29T13:03:30.423Z,16.73
2018-11-29T13:05:59.282Z,14.45
2018-11-29T13:08:28.075Z,16.97
2018-11-29T13:10:56.901Z,15.53
2018-11-29T13:13:27.571Z,17.93
2018-11-29T13:15:54.530Z,15.80
2018-11-29T13:18:30.219Z,15.30
2018-11-29T13:21:03.171Z,16.63
2018-11-29T13:23:31.981Z,14.90
2018-11-29T13:26:00.801Z,16.10
2018-11-29T13:28:29.649Z,16.90
2018-11-29T13:30:58.482Z,15.33
2018-11-29T13:33:27.270Z,14.00
2018-11-29T13:35:56.082Z,14.13
2018-11-29T13:38:25.297Z,15.17
2018-11-29T13:40:54.102Z,15.53
2018-11-29T13:43:23.006Z,15.60
2018-11-29T13:45:52.222Z,15.75
2018-11-29T13:48:21.049Z,16.30
2018-11-29T13:50:49.865Z,16.90
2018-11-29T13:53:18.673Z,14.77
2018-11-29T13:55:47.495Z,14.67
2018-11-29T13:58:16.327Z,15.93
2018-11-29T14:00:45.417Z,13.67
2018-11-29T14:03:15.334Z,14.13
2018-11-29T14:05:44.125Z,15.08
2018-11-29T14:08:12.904Z,18.97
2018-11-29T14:10:42.937Z,15.47
2018-11-29T14:13:11.831Z,17.20
2018-11-29T14:15:40.646Z,15.60
2018-11-29T14:18:09.474Z,13.17
2018-11-29T14:20:38.514Z,13.97
2018-11-29T14:23:07.750Z,13.53
2018-11-29T14:25:36.646Z,18.43
2018-11-29T14:28:06.109Z,15.07
2018-11-29T14:30:34.936Z,14.10
2018-11-29T14:33:03.741Z,15.63
2018-11-29T14:35:32.563Z,14.53
2018-11-29T14:38:01.409Z,15.10
2018-11-29T14:40:33.513Z,13.50
2018-11-29T14:43:02.710Z,16.27
2018-11-29T14:45:31.798Z,19.50
2018-11-29T14:48:00.892Z,16.30
2018-11-29T14:50:41.774Z,14.03
2018-11-29T14:53:10.918Z,17.30
2018-11-29T14:55:40.590Z,16.90
2018-11-29T14:58:11.733Z,20.60
2018-11-29T15:00:40.529Z,16.10
2018-11-29T15:03:25.815Z,16.73
2018-11-29T15:05:54.636Z,16.13
2018-11-29T15:08:23.502Z,16.57
2018-11-29T15:10:52.353Z,13.83
2018-11-29T15:13:21.163Z,13.27
2018-11-29T15:15:49.978Z,14.87
2018-11-29T15:18:18.830Z,14.50
2018-11-29T15:20:48.957Z,15.30
2018-11-29T15:23:19.401Z,18.17
2018-11-29T15:25:48.220Z,15.13
2018-11-29T15:28:17.058Z,17.67
2018-11-29T15:30:45.882Z,15.93
2018-11-29T15:33:14.679Z,15.73
2018-11-29T15:35:43.517Z,16.43
2018-11-29T15:38:12.625Z,14.20
2018-11-29T15:40:41.420Z,14.47
2018-11-29T15:43:10.262Z,14.43
2018-11-29T15:45:39.101Z,15.07
2018-11-29T15:48:08.269Z,14.53
2018-11-29T15:50:37.077Z,18.30
2018-11-29T15:53:07.109Z,15.20
2018-11-29T15:55:36.633Z,12.93
2018-11-29T15:58:05.888Z,14.30
2018-11-29T16:00:35.137Z,15.93
2018-11-29T16:03:06.641Z,15.67
2018-11-29T16:05:35.493Z,14.60
2018-11-29T16:08:04.290Z,13.63
2018-11-29T16:10:33.142Z,15.17
2018-11-29T16:13:01.965Z,18.93
2018-11-29T16:15:30.809Z,14.63
2018-11-29T16:17:59.613Z,14.73
2018-11-29T16:20:34.667Z,17.23
2018-11-29T16:23:03.477Z,17.40
2018-11-29T16:25:32.282Z,14.10
2018-11-29T16:28:01.110Z,17.57
2018-11-29T16:30:44.419Z,14.37
2018-11-29T16:33:17.994Z,13.03
2018-11-29T16:35:46.805Z,15.97
2018-11-29T16:38:15.614Z,15.23
2018-11-29T16:40:44.789Z,16.90
2018-11-29T16:43:13.689Z,15.63
2018-11-29T16:45:42.566Z,13.73
2018-11-29T16:48:11.971Z,13.77
2018-11-29T16:50:40.845Z,13.73
2018-11-29T16:53:09.643Z,15.17
2018-11-29T16:55:38.731Z,15.17
2018-11-29T16:58:12.768Z,15.10
2018-11-29T17:00:42.175Z,13.87
2018-11-29T17:03:10.976Z,13.00
2018-11-29T17:05:39.847Z,13.20
2018-11-29T17:08:08.988Z,13.63
2018-11-29T17:10:37.806Z,15.43
2018-11-29T17:13:12.973Z,12.73
2018-11-29T17:15:41.854Z,11.87
2018-11-29T17:18:10.653Z,13.27
2018-11-29T17:20:39.958Z,13.43
2018-11-29T17:23:10.490Z,12.97
2018-11-29T17:25:39.285Z,14.43
2018-11-29T17:28:08.175Z,14.13
2018-11-29T17:30:38.175Z,12.57
2018-11-29T17:33:08.725Z,15.50
2018-11-29T17:35:37.573Z,14.67
2018-11-29T17:38:06.976Z,13.20
2018-11-29T17:40:37.533Z,14.73
2018-11-29T17:43:07.486Z,12.80
2018-11-29T17:45:36.541Z,13.17
2018-11-29T17:48:08.325Z,13.23
2018-11-29T17:50:42.229Z,13.10
2018-11-29T17:53:11.069Z,11.33
2018-11-29T17:55:40.133Z,14.67
2018-11-29T17:58:11.248Z,13.03
2018-11-29T18:00:40.498Z,17.60
2018-11-29T18:03:09.442Z,12.73
2018-11-29T18:05:38.309Z,13.00
2018-11-29T18:08:07.137Z,12.70
2018-11-29T18:10:38.671Z,12.43
2018-11-29T18:13:20.105Z,12.97
2018-11-29T18:15:48.914Z,11.63
2018-11-29T18:18:17.731Z,14.23
2018-11-29T18:20:46.914Z,12.80
2018-11-29T18:23:15.709Z,11.80
2018-11-29T18:25:44.536Z,14.03
2018-11-29T18:28:13.565Z,12.27
2018-11-29T18:30:42.367Z,11.63
2018-11-29T18:33:11.181Z,11.90
2018-11-29T18:35:40.010Z,12.20
2018-11-29T18:38:08.808Z,11.20
2018-11-29T18:40:37.593Z,13.23
2018-11-29T18:43:09.026Z,12.40
2018-11-29T18:45:37.934Z,11.73
2018-11-29T18:48:07.563Z,11.90
2018-11-29T18:50:36.379Z,12.17
2018-11-29T18:53:06.276Z,10.63
2018-11-29T18:55:35.149Z,10.60
2018-11-29T18:58:04.333Z,12.83
2018-11-29T19:00:34.952Z,10.67
2018-11-29T19:03:03.826Z,12.73
2018-11-29T19:05:32.884Z,9.90
2018-11-29T19:08:01.685Z,9.90
2018-11-29T19:10:30.518Z,9.08
2018-11-29T19:13:07.329Z,12.27
2018-11-29T19:15:36.236Z,11.57
2018-11-29T19:18:10.318Z,10.93
2018-11-29T19:20:34.373Z,11.23
2018-11-29T19:23:03.158Z,12.83
2018-11-29T19:25:31.982Z,10.90
2018-11-29T19:28:00.777Z,11.13
2018-11-29T19:30:30.773Z,10.10
2018-11-29T19:33:03.586Z,10.27
2018-11-29T19:35:32.509Z,10.27
2018-11-29T19:38:01.341Z,12.37
2018-11-29T19:40:30.567Z,9.03
2018-11-29T19:42:59.391Z,10.40
2018-11-29T19:45:28.226Z,11.77
2018-11-29T19:47:57.069Z,9.03
2018-11-29T19:50:25.894Z,10.67
2018-11-29T19:52:57.636Z,10.40
2018-11-29T19:55:28.641Z,10.63
2018-11-29T19:57:57.483Z,8.97
2018-11-29T20:00:26.376Z,11.93
2018-11-29T20:02:56.663Z,9.17
2018-11-29T20:05:25.496Z,8.80
2018-11-29T20:07:54.341Z,8.93
2018-11-29T20:10:23.214Z,9.85
2018-11-29T20:13:00.081Z,11.07
2018-11-29T20:15:29.080Z,9.50
2018-11-29T20:17:57.933Z,10.73
2018-11-29T20:20:26.771Z,9.50
2018-11-29T20:22:55.861Z,13.87
2018-11-29T20:25:26.226Z,10.03
2018-11-29T20:27:55.046Z,10.33
2018-11-29T20:30:24.638Z,11.87
2018-11-29T20:32:54.788Z,11.90
2018-11-29T20:35:23.678Z,10.07
2018-11-29T20:37:53.717Z,12.97
2018-11-29T20:40:24.462Z,10.83
2018-11-29T20:42:56.274Z,9.93
2018-11-29T20:45:32.993Z,9.93
2018-11-29T20:48:04.341Z,10.30
2018-11-29T20:50:33.151Z,10.40
2018-11-29T20:53:01.979Z,10.83
2018-11-29T20:55:32.063Z,12.00
2018-11-29T20:58:00.852Z,11.00
2018-11-29T21:00:29.684Z,12.63
2018-11-29T21:02:58.693Z,10.07
2018-11-29T21:05:27.505Z,10.23
2018-11-29T21:07:59.921Z,9.73
2018-11-29T21:10:28.732Z,11.03
2018-11-29T21:13:01.706Z,10.77
2018-11-29T21:15:30.520Z,11.13
2018-11-29T21:17:59.321Z,10.10
2018-11-29T21:20:28.917Z,11.13
2018-11-29T21:22:57.727Z,9.37
2018-11-29T21:25:26.721Z,11.47
2018-11-29T21:27:55.571Z,10.70
2018-11-29T21:30:24.361Z,10.37
2018-11-29T21:32:53.181Z,9.27
2018-11-29T21:35:23.314Z,12.70
2018-11-29T21:37:53.314Z,10.50
2018-11-29T21:40:31.890Z,11.57
2018-11-29T21:43:00.683Z,13.77
2018-11-29T21:45:29.493Z,11.50
2018-11-29T21:47:58.341Z,11.43
2018-11-29T21:50:27.182Z,13.37
2018-11-29T21:52:55.983Z,10.27
2018-11-29T21:55:24.801Z,9.73
2018-11-29T21:57:53.855Z,11.07
2018-11-29T22:00:23.425Z,10.27
2018-11-29T22:02:56.634Z,11.97
2018-11-29T22:05:25.544Z,10.67
2018-11-29T22:07:54.345Z,10.17
2018-11-29T22:10:23.149Z,10.73
2018-11-29T22:12:51.965Z,11.27
2018-11-29T22:15:20.776Z,12.87
2018-11-29T22:18:15.096Z,11.70
2018-11-29T22:20:43.924Z,12.33
2018-11-29T22:23:12.743Z,10.67
2018-11-29T22:25:42.686Z,11.03
2018-11-29T22:28:11.497Z,10.07
2018-11-29T22:30:41.373Z,10.67
2018-11-29T22:33:12.140Z,11.50
2018-11-29T22:35:40.956Z,11.60
2018-11-29T22:38:09.767Z,10.47
2018-11-29T22:40:38.788Z,9.87
2018-11-29T22:43:07.608Z,10.67
2018-11-29T22:45:36.487Z,10.83
2018-11-29T22:48:05.401Z,13.27
2018-11-29T22:50:34.251Z,11.00
2018-11-29T22:53:03.073Z,9.67
2018-11-29T22:55:32.013Z,9.60
2018-11-29T22:58:01.406Z,10.10
2018-11-29T23:00:35.704Z,9.93
2018-11-29T23:03:04.545Z,15.93
2018-11-29T23:05:33.410Z,11.23
2018-11-29T23:08:02.267Z,10.30
2018-11-29T23:10:31.057Z,10.68
2018-11-29T23:12:59.875Z,11.77
2018-11-29T23:15:28.736Z,11.33
2018-11-29T23:17:57.545Z,10.27
2018-11-29T23:20:26.417Z,9.78
2018-11-29T23:22:55.255Z,11.60
2018-11-29T23:25:24.092Z,10.23
2018-11-29T23:27:52.893Z,10.83
2018-11-29T23:30:21.702Z,10.63
2018-11-29T23:32:50.538Z,10.57
2018-11-29T23:35:19.330Z,9.77
2018-11-29T23:37:48.176Z,10.53
2018-11-29T23:40:18.103Z,9.70
2018-11-29T23:42:47.242Z,12.30
2018-11-29T23:45:16.511Z,10.20
2018-11-29T23:47:45.301Z,10.73
2018-11-29T23:50:17.775Z,9.93
2018-11-29T23:52:47.016Z,9.90
2018-11-29T23:55:21.382Z,10.57
2018-11-29T23:57:50.193Z,11.57
